createdAt,value
2019-05-12T00:02:40.056Z,9.00
2019-05-12T00:05:20.793Z,9.00
2019-05-12T00:08:00.484Z,8.90
2019-05-12T00:10:42.134Z,8.80
2019-05-12T00:13:23.552Z,8.80
2019-05-12T00:16:05.297Z,8.80
2019-05-12T00:21:29.817Z,8.90
2019-05-12T00:24:13.278Z,8.90
2019-05-12T00:29:33.282Z,8.90
2019-05-12T00:32:14.910Z,8.90
2019-05-12T00:34:55.632Z,8.90
2019-05-12T00:37:38.170Z,8.90
2019-05-12T00:40:19.626Z,8.80
2019-05-12T00:42:59.440Z,8.80
2019-05-12T00:45:40.746Z,8.70
2019-05-12T00:48:24.593Z,8.70
2019-05-12T00:51:07.805Z,8.60
2019-05-12T00:53:48.114Z,8.60
2019-05-12T00:59:13.140Z,8.60
2019-05-12T01:01:53.937Z,8.60
2019-05-12T01:04:35.391Z,8.60
2019-05-12T01:07:18.361Z,8.60
2019-05-12T01:10:01.390Z,8.60
2019-05-12T01:12:42.015Z,8.60
2019-05-12T01:15:22.670Z,8.60
2019-05-12T01:18:05.057Z,8.50
2019-05-12T01:20:47.978Z,8.50
2019-05-12T01:23:29.586Z,8.40
2019-05-12T01:26:10.657Z,8.40
2019-05-12T01:28:51.381Z,8.40
2019-05-12T01:31:37.808Z,8.40
2019-05-12T01:34:27.750Z,8.40
2019-05-12T01:40:18.889Z,8.30
2019-05-12T01:42:59.441Z,8.20
2019-05-12T01:45:41.798Z,8.20
2019-05-12T01:48:23.495Z,8.20
2019-05-12T01:51:04.782Z,8.20
2019-05-12T01:56:32.733Z,8.20
2019-05-12T02:02:02.017Z,8.10
2019-05-12T02:07:53.705Z,8.00
2019-05-12T02:10:35.304Z,8.10
2019-05-12T02:19:33.810Z,8.20
2019-05-12T02:22:15.817Z,8.00
2019-05-12T02:24:58.439Z,7.90
2019-05-12T02:27:39.508Z,7.90
2019-05-12T02:30:20.988Z,7.90
2019-05-12T02:35:40.535Z,7.90
2019-05-12T02:38:21.372Z,7.90
2019-05-12T02:41:04.758Z,7.90
2019-05-12T02:43:46.230Z,7.90
2019-05-12T02:49:15.769Z,7.80
2019-05-12T02:51:57.582Z,7.80
2019-05-12T02:54:54.456Z,7.80
2019-05-12T03:00:06.484Z,7.80
2019-05-12T03:02:47.727Z,7.80
2019-05-12T03:08:15.388Z,7.80
2019-05-12T03:10:57.640Z,7.70
2019-05-12T03:13:44.877Z,7.70
2019-05-12T03:16:25.783Z,7.70
2019-05-12T03:19:07.227Z,7.70
2019-05-12T03:21:48.522Z,7.70
2019-05-12T03:24:30.099Z,7.80
2019-05-12T03:27:14.588Z,7.70
2019-05-12T03:32:40.104Z,7.60
2019-05-12T03:38:00.038Z,7.60
2019-05-12T03:43:19.699Z,7.60
2019-05-12T03:46:04.960Z,7.60
2019-05-12T03:48:45.440Z,7.70
2019-05-12T03:51:25.439Z,7.60
2019-05-12T03:54:06.729Z,7.70
2019-05-12T03:59:26.696Z,7.80
2019-05-12T04:02:07.578Z,7.90
2019-05-12T04:07:35.263Z,7.90
2019-05-12T04:10:19.750Z,7.90
2019-05-12T04:13:04.192Z,7.90
2019-05-12T04:15:45.388Z,7.90
2019-05-12T04:18:26.484Z,8.00
2019-05-12T04:21:07.193Z,8.10
2019-05-12T04:26:37.054Z,8.30
2019-05-12T04:29:17.628Z,8.40
2019-05-12T04:31:58.231Z,8.50
2019-05-12T04:34:39.754Z,8.50
2019-05-12T04:37:20.494Z,8.60
2019-05-12T04:40:05.584Z,8.60
2019-05-12T04:42:46.394Z,8.80
2019-05-12T04:45:27.941Z,8.80
2019-05-12T04:48:08.614Z,8.90
2019-05-12T04:50:54.868Z,8.90
2019-05-12T04:53:38.011Z,9.00
2019-05-12T04:56:20.727Z,9.00
2019-05-12T05:02:09.665Z,9.00
2019-05-12T05:04:54.497Z,8.80
2019-05-12T05:07:35.833Z,8.80
2019-05-12T05:10:17.210Z,8.70
2019-05-12T05:12:58.560Z,8.70
2019-05-12T05:18:18.743Z,8.90
2019-05-12T05:21:00.614Z,9.00
2019-05-12T05:23:44.125Z,9.10
2019-05-12T05:26:28.102Z,9.30
2019-05-12T05:29:07.247Z,9.50
2019-05-12T05:31:53.391Z,9.50
2019-05-12T05:34:34.429Z,9.60
2019-05-12T05:37:15.988Z,9.60
2019-05-12T05:42:45.846Z,9.80
2019-05-12T05:45:26.665Z,9.80
2019-05-12T05:48:10.183Z,9.90
2019-05-12T05:50:51.121Z,9.90
2019-05-12T05:53:33.536Z,10.10
2019-05-12T05:56:18.281Z,10.30
2019-05-12T05:58:58.492Z,10.30
2019-05-12T06:01:27.903Z,10.50
2019-05-12T06:04:39.157Z,10.60
2019-05-12T06:07:23.920Z,10.60
2019-05-12T06:10:04.065Z,10.80
2019-05-12T06:12:50.522Z,10.80
2019-05-12T06:15:29.718Z,10.80
2019-05-12T06:18:13.437Z,10.90
2019-05-12T06:20:54.162Z,10.80
2019-05-12T06:23:39.131Z,10.90
2019-05-12T06:26:20.997Z,10.80
2019-05-12T06:31:45.277Z,10.60
2019-05-12T06:34:26.278Z,10.50
2019-05-12T06:37:12.020Z,10.40
2019-05-12T06:39:51.017Z,10.40
2019-05-12T06:42:34.204Z,10.30
2019-05-12T06:45:15.993Z,10.40
2019-05-12T06:47:57.014Z,10.40
2019-05-12T06:50:39.335Z,10.50
2019-05-12T06:53:26.531Z,10.50
2019-05-12T06:55:53.877Z,10.60
2019-05-12T06:58:44.115Z,10.60
2019-05-12T07:01:25.045Z,10.70
2019-05-12T07:06:56.356Z,10.90
2019-05-12T07:12:13.810Z,10.90
2019-05-12T07:14:57.701Z,11.00
2019-05-12T07:20:43.533Z,11.20
2019-05-12T07:23:30.176Z,11.50
2019-05-12T07:26:19.503Z,11.70
2019-05-12T07:28:57.908Z,11.80
2019-05-12T07:34:24.872Z,11.50
2019-05-12T07:37:06.066Z,11.30
2019-05-12T07:39:49.439Z,11.10
2019-05-12T07:45:11.479Z,11.00
2019-05-12T07:47:54.125Z,11.10
2019-05-12T07:50:35.808Z,11.10
2019-05-12T07:53:17.088Z,11.20
2019-05-12T07:58:47.034Z,11.40
2019-05-12T08:01:27.648Z,11.60
2019-05-12T08:04:08.857Z,11.80
2019-05-12T08:06:49.695Z,11.70
2019-05-12T08:09:36.301Z,11.60
2019-05-12T08:15:09.590Z,11.50
2019-05-12T08:17:54.604Z,11.60
2019-05-12T08:20:34.429Z,11.80
2019-05-12T08:23:16.646Z,11.80
2019-05-12T08:28:55.093Z,11.90
2019-05-12T08:31:40.398Z,12.00
2019-05-12T08:34:23.724Z,11.90
2019-05-12T08:37:05.279Z,11.90
2019-05-12T08:39:52.311Z,11.80
2019-05-12T08:42:30.376Z,11.70
2019-05-12T08:45:15.144Z,11.80
2019-05-12T08:47:54.676Z,11.90
2019-05-12T08:50:36.262Z,12.20
2019-05-12T08:53:22.778Z,12.60
2019-05-12T08:56:05.012Z,13.00
2019-05-12T08:58:50.580Z,13.00
2019-05-12T09:01:30.686Z,13.00
2019-05-12T09:04:17.345Z,12.80
2019-05-12T09:06:56.664Z,12.80
2019-05-12T09:09:37.356Z,12.80
2019-05-12T09:12:19.111Z,13.00
2019-05-12T09:15:04.310Z,13.40
2019-05-12T09:17:34.727Z,13.80
2019-05-12T09:20:24.433Z,14.10
2019-05-12T09:23:06.854Z,14.10
2019-05-12T09:25:49.394Z,14.20
2019-05-12T09:31:24.187Z,14.30
2019-05-12T09:34:05.513Z,13.90
2019-05-12T09:36:51.972Z,13.80
2019-05-12T09:42:35.442Z,14.30
2019-05-12T09:45:15.458Z,14.50
2019-05-12T09:48:04.800Z,14.60
2019-05-12T09:50:30.321Z,15.10
2019-05-12T09:53:19.097Z,14.80
2019-05-12T09:56:07.764Z,14.90
2019-05-12T09:58:59.118Z,15.00
2019-05-12T10:01:35.257Z,14.70
2019-05-12T10:04:19.484Z,14.30
2019-05-12T10:06:59.096Z,14.10
2019-05-12T10:09:40.750Z,14.00
2019-05-12T10:15:04.241Z,14.00
2019-05-12T10:17:45.418Z,14.30
2019-05-12T10:20:29.213Z,14.60
2019-05-12T10:25:48.984Z,14.60
2019-05-12T10:28:30.366Z,14.50
2019-05-12T10:37:06.214Z,14.10
2019-05-12T10:39:47.834Z,14.30
2019-05-12T10:45:20.469Z,15.00
2019-05-12T10:51:06.529Z,15.50
2019-05-12T10:53:48.751Z,16.10
2019-05-12T10:56:34.635Z,16.40
2019-05-12T10:59:27.153Z,16.30
2019-05-12T11:01:56.460Z,16.30
2019-05-12T11:04:41.094Z,16.60
2019-05-12T11:10:15.621Z,16.80
2019-05-12T11:12:47.173Z,16.50
2019-05-12T11:15:27.992Z,16.00
2019-05-12T11:20:54.774Z,15.50
2019-05-12T11:23:36.364Z,15.60
2019-05-12T11:26:19.154Z,15.90
2019-05-12T11:31:38.983Z,16.40
2019-05-12T11:37:14.095Z,16.40
2019-05-12T11:39:55.147Z,16.20
2019-05-12T11:42:36.464Z,16.10
2019-05-12T11:45:17.173Z,16.30
2019-05-12T11:48:05.189Z,16.60
2019-05-12T11:50:49.510Z,17.70
2019-05-12T11:53:30.484Z,19.50
2019-05-12T11:56:07.867Z,20.60
2019-05-12T11:58:51.485Z,21.20
2019-05-12T12:01:34.453Z,22.50
2019-05-12T12:04:14.590Z,22.00
2019-05-12T12:06:56.064Z,21.10
2019-05-12T12:09:37.598Z,21.00
2019-05-12T12:12:07.433Z,20.90
2019-05-12T12:14:57.130Z,22.40
2019-05-12T12:17:38.280Z,24.40
2019-05-12T12:23:10.555Z,27.50
2019-05-12T12:25:48.585Z,27.20
2019-05-12T12:28:30.228Z,27.20
2019-05-12T12:31:13.211Z,26.40
2019-05-12T12:33:54.774Z,27.00
2019-05-12T12:36:36.071Z,27.70
2019-05-12T12:39:20.548Z,27.70
2019-05-12T12:42:04.253Z,28.00
2019-05-12T12:44:44.856Z,27.40
2019-05-12T12:50:30.708Z,26.20
2019-05-12T12:55:53.798Z,26.70
2019-05-12T12:58:35.123Z,27.40
2019-05-12T13:01:23.253Z,25.10
2019-05-12T13:04:04.566Z,23.20
2019-05-12T13:06:43.779Z,23.40
2019-05-12T13:09:24.689Z,23.40
2019-05-12T13:12:14.351Z,24.50
2019-05-12T13:14:53.217Z,25.30
2019-05-12T13:17:40.153Z,26.20
2019-05-12T13:20:17.531Z,27.10
2019-05-12T13:23:01.329Z,25.20
2019-05-12T13:25:48.457Z,22.10
2019-05-12T13:28:26.407Z,21.20
2019-05-12T13:31:12.824Z,22.50
2019-05-12T13:33:54.813Z,24.40
2019-05-12T13:36:24.050Z,25.70
2019-05-12T13:39:16.454Z,27.70
2019-05-12T13:41:58.520Z,28.60
2019-05-12T13:44:40.547Z,27.80
2019-05-12T13:47:20.452Z,28.10
2019-05-12T13:50:03.882Z,28.40
2019-05-12T13:52:44.869Z,28.70
2019-05-12T13:58:13.580Z,28.30
2019-05-12T14:00:50.821Z,27.00
2019-05-12T14:03:33.615Z,25.30
2019-05-12T14:06:16.122Z,25.10
2019-05-12T14:08:56.908Z,25.90
2019-05-12T14:11:38.772Z,26.10
2019-05-12T14:14:20.072Z,26.80
2019-05-12T14:17:01.035Z,26.50
2019-05-12T14:19:43.732Z,27.60
2019-05-12T14:22:26.350Z,29.40
2019-05-12T14:25:10.758Z,30.10
2019-05-12T14:30:41.263Z,29.90
2019-05-12T14:33:20.944Z,30.30
2019-05-12T14:36:04.104Z,28.30
2019-05-12T14:38:45.145Z,28.90
2019-05-12T14:41:14.848Z,28.30
2019-05-12T14:44:03.632Z,27.70
2019-05-12T14:46:56.662Z,30.00
2019-05-12T14:49:36.546Z,29.60
2019-05-12T14:52:17.313Z,29.00
2019-05-12T14:55:03.340Z,27.20
2019-05-12T14:57:43.375Z,27.80
2019-05-12T15:00:25.141Z,26.30
2019-05-12T15:03:12.689Z,25.10
2019-05-12T15:08:36.129Z,26.30
2019-05-12T15:10:59.232Z,27.30
2019-05-12T15:13:47.724Z,27.10
2019-05-12T15:19:36.759Z,28.10
2019-05-12T15:22:18.360Z,27.40
2019-05-12T15:25:02.710Z,27.30
2019-05-12T15:27:47.648Z,28.00
2019-05-12T15:30:27.164Z,26.40
2019-05-12T15:33:09.038Z,26.60
2019-05-12T15:35:51.459Z,26.90
2019-05-12T15:38:35.936Z,26.50
2019-05-12T15:41:20.052Z,26.10
2019-05-12T15:44:03.324Z,26.00
2019-05-12T15:46:46.442Z,26.20
2019-05-12T15:49:26.672Z,27.80
2019-05-12T15:52:08.281Z,27.00
2019-05-12T15:54:51.406Z,26.80
2019-05-12T15:57:33.464Z,26.90
2019-05-12T16:03:03.398Z,25.10
2019-05-12T16:05:44.852Z,24.50
2019-05-12T16:08:25.613Z,24.00
2019-05-12T16:11:06.280Z,23.50
2019-05-12T16:13:59.247Z,23.00
2019-05-12T16:16:46.987Z,22.10
2019-05-12T16:19:28.197Z,21.30
2019-05-12T16:21:57.602Z,20.90
2019-05-12T16:24:48.853Z,20.20
2019-05-12T16:27:37.356Z,20.30
2019-05-12T16:30:20.272Z,20.80
2019-05-12T16:33:03.583Z,20.80
2019-05-12T16:38:29.338Z,20.30
2019-05-12T16:41:10.850Z,20.90
2019-05-12T16:43:53.700Z,20.50
2019-05-12T16:46:35.838Z,21.10
2019-05-12T16:49:17.434Z,21.20
2019-05-12T16:57:26.898Z,21.50
2019-05-12T17:00:08.678Z,22.30
2019-05-12T17:02:53.725Z,22.30
2019-05-12T17:05:33.532Z,22.50
2019-05-12T17:08:15.157Z,22.50
2019-05-12T17:11:08.997Z,23.00
2019-05-12T17:13:39.247Z,23.30
2019-05-12T17:16:23.720Z,24.70
2019-05-12T17:19:10.218Z,25.00
2019-05-12T17:21:57.625Z,24.60
2019-05-12T17:24:31.331Z,24.50
2019-05-12T17:27:17.889Z,25.10
2019-05-12T17:29:55.160Z,25.30
2019-05-12T17:32:36.793Z,25.80
2019-05-12T17:35:20.187Z,25.50
2019-05-12T17:38:01.140Z,25.10
2019-05-12T17:40:44.137Z,23.90
2019-05-12T17:43:25.320Z,22.30
2019-05-12T17:48:54.351Z,22.30
2019-05-12T17:51:35.894Z,22.40
2019-05-12T17:54:21.490Z,24.20
2019-05-12T17:59:45.059Z,21.40
2019-05-12T18:02:26.539Z,19.80
2019-05-12T18:05:12.260Z,18.40
2019-05-12T18:07:52.502Z,17.40
2019-05-12T18:10:37.980Z,16.60
2019-05-12T18:16:05.875Z,15.60
2019-05-12T18:18:38.263Z,15.20
2019-05-12T18:21:21.870Z,14.90
2019-05-12T18:26:58.761Z,14.40
2019-05-12T18:29:30.856Z,14.20
2019-05-12T18:34:58.307Z,13.90
2019-05-12T18:37:38.917Z,13.90
2019-05-12T18:40:20.560Z,13.80
2019-05-12T18:43:03.898Z,13.50
2019-05-12T18:45:48.713Z,13.40
2019-05-12T18:51:12.180Z,13.30
2019-05-12T18:53:54.305Z,13.10
2019-05-12T18:56:24.821Z,13.00
2019-05-12T18:58:54.618Z,12.90
2019-05-12T19:01:24.616Z,12.90
2019-05-12T19:03:54.751Z,12.80
2019-05-12T19:06:24.282Z,12.80
2019-05-12T19:08:54.023Z,12.70
2019-05-12T19:11:31.501Z,12.80
2019-05-12T19:13:57.127Z,12.70
2019-05-12T19:16:25.622Z,12.70
2019-05-12T19:18:55.704Z,12.50
2019-05-12T19:21:25.334Z,12.40
2019-05-12T19:23:54.828Z,12.30
2019-05-12T19:26:24.370Z,12.20
2019-05-12T19:28:57.910Z,12.10
2019-05-12T19:31:24.938Z,12.00
2019-05-12T19:34:14.961Z,12.00
2019-05-12T19:36:25.573Z,12.00
2019-05-12T19:38:56.719Z,12.00
2019-05-12T19:41:30.964Z,12.00
2019-05-12T19:43:57.150Z,11.90
2019-05-12T19:46:26.529Z,11.80
2019-05-12T19:48:55.880Z,11.80
2019-05-12T19:51:28.168Z,11.80
2019-05-12T19:53:56.239Z,11.70
2019-05-12T19:56:34.575Z,11.70
2019-05-12T19:58:56.726Z,11.70
2019-05-12T20:01:32.332Z,11.70
2019-05-12T20:03:58.069Z,11.70
2019-05-12T20:06:27.617Z,11.60
2019-05-12T20:09:05.991Z,11.50
2019-05-12T20:11:31.388Z,11.50
2019-05-12T20:13:59.116Z,11.50
2019-05-12T20:16:30.425Z,11.40
2019-05-12T20:18:59.623Z,11.40
2019-05-12T20:21:29.057Z,11.30
2019-05-12T20:23:58.484Z,11.30
2019-05-12T20:26:27.893Z,11.20
2019-05-12T20:28:57.283Z,11.10
2019-05-12T20:31:27.349Z,11.10
2019-05-12T20:34:04.440Z,11.10
2019-05-12T20:36:27.849Z,11.10
2019-05-12T20:38:57.309Z,11.10
2019-05-12T20:41:26.928Z,11.10
2019-05-12T20:43:56.287Z,11.10
2019-05-12T20:46:26.074Z,11.00
2019-05-12T20:48:55.475Z,11.00
2019-05-12T20:51:24.965Z,10.90
2019-05-12T20:53:54.378Z,10.80
2019-05-12T20:56:24.978Z,10.80
2019-05-12T20:58:54.540Z,10.80
2019-05-12T21:01:26.623Z,10.80
2019-05-12T21:03:55.766Z,10.70
2019-05-12T21:06:25.141Z,10.60
2019-05-12T21:08:56.654Z,10.70
2019-05-12T21:11:25.605Z,10.70
2019-05-12T21:13:55.012Z,10.70
2019-05-12T21:16:30.879Z,10.70
2019-05-12T21:19:02.117Z,10.70
2019-05-12T21:21:33.150Z,10.60
2019-05-12T21:23:59.433Z,10.60
2019-05-12T21:26:33.712Z,10.50
2019-05-12T21:28:59.625Z,10.50
2019-05-12T21:31:31.098Z,10.50
2019-05-12T21:34:00.621Z,10.50
2019-05-12T21:36:30.011Z,10.50
2019-05-12T21:39:04.615Z,10.50
2019-05-12T21:41:30.401Z,10.50
2019-05-12T21:44:04.988Z,10.50
2019-05-12T21:46:30.808Z,10.50
2019-05-12T21:49:09.866Z,10.40
2019-05-12T21:51:31.281Z,10.40
2019-05-12T21:54:00.834Z,10.40
2019-05-12T21:56:34.909Z,10.30
2019-05-12T21:59:03.613Z,10.30
2019-05-12T22:01:36.789Z,10.30
2019-05-12T22:04:05.420Z,10.20
2019-05-12T22:06:34.649Z,10.10
2019-05-12T22:09:05.849Z,10.10
2019-05-12T22:11:35.319Z,10.00
2019-05-12T22:14:04.980Z,10.00
2019-05-12T22:16:43.294Z,10.00
2019-05-12T22:19:07.100Z,9.90
2019-05-12T22:21:44.474Z,9.90
2019-05-12T22:24:07.528Z,10.00
2019-05-12T22:26:40.332Z,10.00
2019-05-12T22:29:07.903Z,10.00
2019-05-12T22:31:38.466Z,9.90
2019-05-12T22:34:08.285Z,9.80
2019-05-12T22:36:37.710Z,9.70
2019-05-12T22:39:08.071Z,9.70
2019-05-12T22:41:41.362Z,9.70
2019-05-12T22:44:08.366Z,9.70
2019-05-12T22:46:37.727Z,9.80
2019-05-12T22:49:10.620Z,9.70
2019-05-12T22:51:38.074Z,9.60
2019-05-12T22:54:10.608Z,9.60
2019-05-12T22:56:38.409Z,9.60
2019-05-12T22:59:07.743Z,9.60
2019-05-12T23:01:41.368Z,9.50
2019-05-12T23:04:08.142Z,9.60
2019-05-12T23:06:42.060Z,9.60
2019-05-12T23:09:08.614Z,9.50
2019-05-12T23:11:38.090Z,9.60
2019-05-12T23:14:12.471Z,9.60
2019-05-12T23:16:38.482Z,9.50
2019-05-12T23:19:11.993Z,9.50
2019-05-12T23:21:38.914Z,9.50
2019-05-12T23:24:08.272Z,9.50
2019-05-12T23:26:41.937Z,9.40
2019-05-12T23:29:08.623Z,9.40
2019-05-12T23:31:38.013Z,9.40
2019-05-12T23:34:12.235Z,9.50
2019-05-12T23:36:39.200Z,9.40
2019-05-12T23:39:08.675Z,9.30
2019-05-12T23:41:37.955Z,9.30
2019-05-12T23:44:07.336Z,9.30
2019-05-12T23:46:37.131Z,9.30
2019-05-12T23:49:06.472Z,9.30
2019-05-12T23:51:35.764Z,9.30
2019-05-12T23:54:05.188Z,9.20
2019-05-12T23:56:34.521Z,9.10
2019-05-12T23:59:04.552Z,9.20
